createdAt,value
2019-02-02T00:02:20.384Z,22.60
2019-02-02T00:05:06.496Z,21.12
2019-02-02T00:07:52.194Z,20.85
2019-02-02T00:10:37.831Z,20.48
2019-02-02T00:13:23.928Z,19.95
2019-02-02T00:16:09.843Z,19.80
2019-02-02T00:18:56.880Z,19.32
2019-02-02T00:21:43.188Z,19.82
2019-02-02T00:24:28.983Z,19.02
2019-02-02T00:27:15.195Z,18.77
2019-02-02T00:30:02.367Z,17.98
2019-02-02T00:32:48.663Z,17.87
2019-02-02T00:35:34.813Z,17.45
2019-02-02T00:38:21.112Z,18.35
2019-02-02T00:41:14.096Z,17.80
2019-02-02T00:44:00.363Z,17.90
2019-02-02T00:46:46.422Z,16.23
2019-02-02T00:49:32.275Z,16.55
2019-02-02T00:52:18.003Z,17.07
2019-02-02T00:55:04.843Z,16.87
2019-02-02T00:57:54.115Z,16.48
2019-02-02T01:00:39.087Z,16.48
2019-02-02T01:03:25.171Z,16.42
2019-02-02T01:06:11.271Z,16.57
2019-02-02T01:08:56.998Z,15.75
2019-02-02T01:11:43.266Z,15.40
2019-02-02T01:14:29.212Z,16.25
2019-02-02T01:17:15.267Z,15.78
2019-02-02T01:20:01.347Z,15.72
2019-02-02T01:22:48.059Z,14.75
2019-02-02T01:25:34.243Z,16.02
2019-02-02T01:28:20.146Z,15.50
2019-02-02T01:31:05.925Z,15.10
2019-02-02T01:33:52.211Z,15.13
2019-02-02T01:36:38.268Z,14.75
2019-02-02T01:39:24.019Z,13.95
2019-02-02T01:42:09.977Z,14.15
2019-02-02T01:44:56.119Z,14.43
2019-02-02T01:47:42.021Z,14.83
2019-02-02T01:50:28.070Z,14.07
2019-02-02T01:53:13.903Z,14.23
2019-02-02T01:55:59.976Z,13.95
2019-02-02T01:58:46.095Z,14.40
2019-02-02T02:01:32.192Z,14.23
2019-02-02T02:04:18.224Z,13.78
2019-02-02T02:07:05.783Z,14.18
2019-02-02T02:09:51.479Z,14.28
2019-02-02T02:12:37.367Z,13.88
2019-02-02T02:15:23.208Z,14.20
2019-02-02T02:18:09.098Z,13.78
2019-02-02T02:20:55.139Z,14.30
2019-02-02T02:23:41.244Z,13.80
2019-02-02T02:26:26.959Z,14.05
2019-02-02T02:29:12.753Z,13.58
2019-02-02T02:31:58.453Z,13.53
2019-02-02T02:34:44.579Z,13.90
2019-02-02T02:37:30.347Z,14.28
2019-02-02T02:40:18.560Z,14.03
2019-02-02T02:43:04.743Z,13.78
2019-02-02T02:45:52.457Z,13.30
2019-02-02T02:48:38.464Z,13.28
2019-02-02T02:51:24.423Z,14.25
2019-02-02T02:54:09.947Z,13.15
2019-02-02T02:56:56.780Z,13.53
2019-02-02T02:59:42.961Z,13.55
2019-02-02T03:02:29.035Z,13.35
2019-02-02T03:05:14.879Z,13.38
2019-02-02T03:08:00.777Z,12.98
2019-02-02T03:10:46.604Z,12.88
2019-02-02T03:13:32.881Z,13.30
2019-02-02T03:16:18.762Z,13.43
2019-02-02T03:19:04.991Z,12.75
2019-02-02T03:21:51.019Z,12.53
2019-02-02T03:24:36.899Z,13.18
2019-02-02T03:27:22.635Z,12.82
2019-02-02T03:30:11.403Z,13.58
2019-02-02T03:32:57.373Z,13.40
2019-02-02T03:35:43.379Z,12.60
2019-02-02T03:38:29.300Z,12.93
2019-02-02T03:41:15.163Z,12.43
2019-02-02T03:44:01.118Z,12.30
2019-02-02T03:46:46.947Z,12.63
2019-02-02T03:49:32.852Z,13.32
2019-02-02T03:52:19.028Z,12.82
2019-02-02T03:55:05.471Z,11.90
2019-02-02T03:57:51.153Z,12.68
2019-02-02T04:00:37.113Z,12.55
2019-02-02T04:03:22.773Z,12.63
2019-02-02T04:06:08.844Z,12.30
2019-02-02T04:08:55.020Z,12.30
2019-02-02T04:11:43.423Z,12.23
2019-02-02T04:14:29.100Z,11.85
2019-02-02T04:17:14.923Z,12.43
2019-02-02T04:20:01.035Z,12.47
2019-02-02T04:22:47.081Z,12.05
2019-02-02T04:25:33.007Z,12.30
2019-02-02T04:28:18.847Z,12.40
2019-02-02T04:31:04.875Z,12.28
2019-02-02T04:33:50.848Z,12.43
2019-02-02T04:36:37.303Z,12.73
2019-02-02T04:39:23.515Z,12.00
2019-02-02T04:42:09.371Z,12.10
2019-02-02T04:44:55.182Z,11.75
2019-02-02T04:47:41.427Z,12.50
2019-02-02T04:50:27.806Z,11.60
2019-02-02T04:53:13.985Z,11.00
2019-02-02T04:55:59.920Z,11.68
2019-02-02T04:58:46.358Z,11.75
2019-02-02T05:01:32.126Z,11.50
2019-02-02T05:04:18.359Z,12.07
2019-02-02T05:07:04.283Z,11.88
2019-02-02T05:09:49.987Z,11.33
2019-02-02T05:12:36.067Z,11.40
2019-02-02T05:15:22.281Z,11.03
2019-02-02T05:18:08.098Z,12.33
2019-02-02T05:20:54.067Z,11.40
2019-02-02T05:23:39.823Z,11.35
2019-02-02T05:26:25.803Z,11.65
2019-02-02T05:29:11.772Z,11.28
2019-02-02T05:31:57.683Z,11.90
2019-02-02T05:34:43.496Z,11.30
2019-02-02T05:37:29.883Z,11.20
2019-02-02T05:40:16.482Z,11.57
2019-02-02T05:43:02.296Z,11.33
2019-02-02T05:45:48.236Z,11.75
2019-02-02T05:48:33.931Z,11.48
2019-02-02T05:51:19.987Z,11.08
2019-02-02T05:54:05.829Z,11.43
2019-02-02T05:56:51.687Z,11.45
2019-02-02T05:59:37.823Z,11.00
2019-02-02T06:02:23.858Z,12.15
2019-02-02T06:05:10.328Z,11.65
2019-02-02T06:07:56.051Z,11.80
2019-02-02T06:10:42.025Z,11.05
2019-02-02T06:13:27.879Z,11.63
2019-02-02T06:16:13.979Z,11.30
2019-02-02T06:19:00.222Z,11.03
2019-02-02T06:21:46.676Z,10.88
2019-02-02T06:24:32.417Z,11.08
2019-02-02T06:27:18.327Z,11.05
2019-02-02T06:30:08.051Z,10.98
2019-02-02T06:32:54.084Z,10.88
2019-02-02T06:35:39.815Z,11.20
2019-02-02T06:38:26.323Z,11.48
2019-02-02T06:41:12.578Z,11.00
2019-02-02T06:43:58.719Z,12.30
2019-02-02T06:46:44.465Z,10.82
2019-02-02T06:49:30.538Z,10.75
2019-02-02T06:52:16.995Z,11.12
2019-02-02T06:55:03.511Z,11.60
2019-02-02T06:57:49.407Z,10.68
2019-02-02T07:00:35.684Z,11.45
2019-02-02T07:03:21.780Z,11.10
2019-02-02T07:06:07.484Z,10.55
2019-02-02T07:08:53.596Z,10.78
2019-02-02T07:11:40.083Z,10.80
2019-02-02T07:14:25.911Z,11.18
2019-02-02T07:17:11.763Z,11.25
2019-02-02T07:19:57.683Z,10.78
2019-02-02T07:22:43.797Z,10.82
2019-02-02T07:25:29.796Z,11.60
2019-02-02T07:28:15.631Z,10.30
2019-02-02T07:31:01.469Z,10.82
2019-02-02T07:33:47.623Z,11.33
2019-02-02T07:36:33.697Z,10.88
2019-02-02T07:39:20.392Z,11.03
2019-02-02T07:42:06.606Z,11.45
2019-02-02T07:44:53.226Z,11.03
2019-02-02T07:47:39.303Z,11.25
2019-02-02T07:50:25.444Z,11.12
2019-02-02T07:53:11.411Z,10.72
2019-02-02T07:55:57.458Z,11.03
2019-02-02T07:58:43.127Z,11.03
2019-02-02T08:01:28.885Z,10.60
2019-02-02T08:04:14.724Z,10.65
2019-02-02T08:07:00.884Z,10.60
2019-02-02T08:09:47.253Z,11.22
2019-02-02T08:12:33.984Z,10.48
2019-02-02T08:15:22.702Z,11.00
2019-02-02T08:18:08.683Z,11.00
2019-02-02T08:20:54.999Z,10.32
2019-02-02T08:23:41.142Z,11.22
2019-02-02T08:26:26.796Z,11.03
2019-02-02T08:29:13.012Z,10.75
2019-02-02T08:31:59.551Z,10.60
2019-02-02T08:34:45.767Z,10.78
2019-02-02T08:37:32.319Z,11.00
2019-02-02T08:40:18.661Z,11.33
2019-02-02T08:43:20.638Z,10.43
2019-02-02T08:46:07.516Z,10.32
2019-02-02T08:48:54.034Z,10.58
2019-02-02T08:51:40.447Z,11.30
2019-02-02T08:54:28.920Z,16.45
2019-02-02T08:57:37.274Z,19.98
2019-02-02T09:00:23.767Z,26.30
2019-02-02T09:03:09.532Z,28.27
2019-02-02T09:05:55.680Z,26.70
2019-02-02T09:08:42.172Z,24.70
2019-02-02T09:11:28.187Z,25.90
2019-02-02T09:14:14.264Z,23.18
2019-02-02T09:17:00.435Z,24.05
2019-02-02T09:19:46.809Z,23.10
2019-02-02T09:22:33.188Z,21.97
2019-02-02T09:25:19.688Z,21.10
2019-02-02T09:28:05.614Z,20.82
2019-02-02T09:30:51.544Z,19.77
2019-02-02T09:33:19.347Z,19.25
2019-02-02T09:35:47.016Z,18.67
2019-02-02T09:38:15.443Z,18.35
2019-02-02T09:40:42.574Z,18.62
2019-02-02T09:43:13.055Z,16.87
2019-02-02T09:45:43.763Z,17.20
2019-02-02T09:48:10.977Z,16.30
2019-02-02T09:50:38.163Z,16.07
2019-02-02T09:53:05.586Z,15.60
2019-02-02T09:55:34.482Z,14.93
2019-02-02T09:58:08.456Z,15.20
2019-02-02T10:00:34.721Z,14.58
2019-02-02T10:03:02.126Z,14.70
2019-02-02T10:05:30.256Z,14.30
2019-02-02T10:07:57.540Z,13.60
2019-02-02T10:10:42.172Z,14.58
2019-02-02T10:13:17.992Z,13.28
2019-02-02T10:15:46.121Z,13.08
2019-02-02T10:18:13.423Z,12.82
2019-02-02T10:20:40.695Z,12.85
2019-02-02T10:23:07.959Z,12.98
2019-02-02T10:25:45.804Z,12.60
2019-02-02T10:28:24.339Z,12.13
2019-02-02T10:31:02.615Z,12.35
2019-02-02T10:34:05.791Z,11.22
2019-02-02T10:36:34.110Z,11.53
2019-02-02T10:39:04.743Z,11.65
2019-02-02T10:41:34.072Z,10.78
2019-02-02T10:44:01.673Z,11.35
2019-02-02T10:46:29.171Z,10.82
2019-02-02T10:48:56.449Z,11.63
2019-02-02T10:51:46.178Z,10.60
2019-02-02T10:54:18.226Z,10.53
2019-02-02T10:56:45.759Z,10.15
2019-02-02T10:59:13.487Z,10.08
2019-02-02T11:01:50.791Z,10.53
2019-02-02T11:04:13.056Z,9.90
2019-02-02T11:06:40.618Z,9.68
2019-02-02T11:09:08.486Z,9.85
2019-02-02T11:11:36.397Z,9.70
2019-02-02T11:14:04.114Z,9.78
2019-02-02T11:16:31.731Z,8.68
2019-02-02T11:19:17.745Z,9.35
2019-02-02T11:22:04.094Z,8.98
2019-02-02T11:24:49.897Z,8.90
2019-02-02T11:27:35.740Z,8.85
2019-02-02T11:30:23.797Z,8.95
2019-02-02T11:33:09.711Z,8.75
2019-02-02T11:35:55.714Z,8.53
2019-02-02T11:38:42.017Z,8.00
2019-02-02T11:41:28.006Z,7.95
2019-02-02T11:44:13.980Z,8.10
2019-02-02T11:47:00.644Z,7.95
2019-02-02T11:49:47.144Z,8.30
2019-02-02T11:52:33.528Z,7.50
2019-02-02T11:55:19.795Z,7.62
2019-02-02T11:58:05.801Z,7.90
2019-02-02T12:00:51.686Z,7.42
2019-02-02T12:03:38.338Z,7.95
2019-02-02T12:06:24.590Z,6.95
2019-02-02T12:09:11.225Z,7.05
2019-02-02T12:11:38.757Z,7.78
2019-02-02T12:14:06.012Z,7.17
2019-02-02T12:16:33.323Z,6.80
2019-02-02T12:19:01.371Z,6.92
2019-02-02T12:21:28.809Z,6.78
2019-02-02T12:23:57.366Z,6.70
2019-02-02T12:26:25.075Z,7.00
2019-02-02T12:28:52.168Z,6.47
2019-02-02T12:31:19.552Z,6.62
2019-02-02T12:33:47.084Z,6.33
2019-02-02T12:36:14.302Z,6.42
2019-02-02T12:38:42.721Z,6.25
2019-02-02T12:41:11.311Z,6.35
2019-02-02T12:43:38.636Z,5.95
2019-02-02T12:46:06.108Z,6.00
2019-02-02T12:48:33.304Z,5.85
2019-02-02T12:51:00.768Z,6.08
2019-02-02T12:53:27.958Z,5.97
2019-02-02T12:55:55.275Z,5.92
2019-02-02T12:58:22.491Z,5.90
2019-02-02T13:00:49.822Z,5.97
2019-02-02T13:03:20.898Z,5.83
2019-02-02T13:05:49.371Z,5.83
2019-02-02T13:08:16.687Z,5.62
2019-02-02T13:10:43.882Z,5.35
2019-02-02T13:13:11.316Z,5.75
2019-02-02T13:15:38.804Z,6.35
2019-02-02T13:18:06.436Z,6.08
2019-02-02T13:20:33.727Z,5.50
2019-02-02T13:23:01.039Z,5.58
2019-02-02T13:25:28.247Z,5.87
2019-02-02T13:27:55.435Z,5.53
2019-02-02T13:30:41.534Z,5.83
2019-02-02T13:33:27.496Z,5.45
2019-02-02T13:36:13.412Z,5.72
2019-02-02T13:38:59.411Z,5.60
2019-02-02T13:41:45.411Z,6.00
2019-02-02T13:44:31.251Z,5.78
2019-02-02T13:47:17.207Z,5.55
2019-02-02T13:50:04.642Z,5.67
2019-02-02T13:52:51.041Z,6.00
2019-02-02T13:55:39.809Z,5.10
2019-02-02T13:58:25.004Z,5.30
2019-02-02T14:01:10.919Z,5.40
2019-02-02T14:03:56.735Z,5.30
2019-02-02T14:06:42.687Z,5.37
2019-02-02T14:09:29.008Z,5.60
2019-02-02T14:12:14.911Z,5.50
2019-02-02T14:15:01.319Z,5.08
2019-02-02T14:17:47.079Z,5.60
2019-02-02T14:20:32.863Z,5.35
2019-02-02T14:23:18.975Z,5.10
2019-02-02T14:26:05.068Z,4.90
2019-02-02T14:28:51.095Z,5.08
2019-02-02T14:31:37.587Z,5.12
2019-02-02T14:34:23.341Z,5.00
2019-02-02T14:37:09.370Z,5.08
2019-02-02T14:39:55.296Z,4.58
2019-02-02T14:42:41.199Z,4.22
2019-02-02T14:45:28.037Z,4.70
2019-02-02T14:48:14.491Z,4.40
2019-02-02T14:51:00.483Z,4.80
2019-02-02T14:53:46.553Z,4.60
2019-02-02T14:56:32.511Z,5.17
2019-02-02T14:59:18.875Z,4.92
2019-02-02T15:02:04.735Z,4.58
2019-02-02T15:04:50.913Z,4.50
2019-02-02T15:07:36.984Z,4.30
2019-02-02T15:10:24.419Z,4.70
2019-02-02T15:13:10.712Z,4.37
2019-02-02T15:15:56.931Z,4.60
2019-02-02T15:18:42.965Z,4.40
2019-02-02T15:21:29.147Z,4.55
2019-02-02T15:24:15.072Z,4.53
2019-02-02T15:27:01.531Z,3.87
2019-02-02T15:29:47.605Z,4.50
2019-02-02T15:32:33.632Z,4.20
2019-02-02T15:35:19.444Z,4.55
2019-02-02T15:38:05.517Z,4.35
2019-02-02T15:40:58.686Z,4.45
2019-02-02T15:46:15.811Z,4.08
2019-02-02T15:49:01.914Z,4.35
2019-02-02T15:51:48.131Z,4.10
2019-02-02T15:54:34.612Z,4.05
2019-02-02T15:57:20.660Z,3.95
2019-02-02T16:00:18.996Z,3.72
2019-02-02T16:03:05.611Z,3.62
2019-02-02T16:05:51.896Z,3.77
2019-02-02T16:08:38.275Z,3.70
2019-02-02T16:11:24.156Z,3.92
2019-02-02T16:14:10.708Z,3.77
2019-02-02T16:16:58.217Z,3.90
2019-02-02T16:19:44.065Z,3.70
2019-02-02T16:22:42.411Z,3.70
2019-02-02T16:25:35.311Z,3.47
2019-02-02T16:28:25.164Z,3.70
2019-02-02T16:31:12.983Z,3.22
2019-02-02T16:34:02.094Z,3.60
2019-02-02T16:36:46.340Z,3.75
2019-02-02T16:39:32.796Z,3.65
2019-02-02T16:42:18.824Z,3.50
2019-02-02T16:45:07.655Z,3.33
2019-02-02T16:47:53.668Z,3.37
2019-02-02T16:50:39.627Z,3.47
2019-02-02T16:53:25.499Z,3.25
2019-02-02T16:56:11.287Z,3.60
2019-02-02T16:58:57.152Z,3.40
2019-02-02T17:01:43.607Z,3.15
2019-02-02T17:04:29.675Z,3.55
2019-02-02T17:07:15.584Z,3.37
2019-02-02T17:10:01.295Z,3.30
2019-02-02T17:12:47.815Z,3.30
2019-02-02T17:15:34.218Z,2.87
2019-02-02T17:18:20.515Z,3.15
2019-02-02T17:21:06.895Z,3.20
2019-02-02T17:23:53.247Z,3.17
2019-02-02T17:26:41.443Z,3.20
2019-02-02T17:29:27.012Z,3.30
2019-02-02T17:32:13.355Z,3.15
2019-02-02T17:34:59.407Z,2.90
2019-02-02T17:37:45.639Z,2.90
2019-02-02T17:40:31.944Z,2.90
2019-02-02T17:43:17.993Z,2.83
2019-02-02T17:46:05.439Z,2.90
2019-02-02T17:48:51.379Z,3.15
2019-02-02T17:51:37.625Z,2.67
2019-02-02T17:54:23.435Z,2.98
2019-02-02T17:57:09.407Z,2.42
2019-02-02T17:59:55.680Z,4.50
2019-02-02T18:02:42.103Z,4.97
2019-02-02T18:05:28.299Z,4.40
2019-02-02T18:08:14.556Z,4.60
2019-02-02T18:11:00.440Z,4.50
2019-02-02T18:13:46.470Z,4.58
2019-02-02T18:16:32.555Z,4.33
2019-02-02T18:19:18.475Z,4.70
2019-02-02T18:22:04.356Z,3.98
2019-02-02T18:24:50.719Z,4.08
2019-02-02T18:27:36.791Z,4.03
2019-02-02T18:30:23.231Z,4.15
2019-02-02T18:33:09.111Z,3.95
2019-02-02T18:35:54.979Z,3.80
2019-02-02T18:38:41.003Z,3.77
2019-02-02T18:41:26.831Z,3.50
2019-02-02T18:44:12.543Z,3.72
2019-02-02T18:46:58.507Z,3.22
2019-02-02T18:49:44.227Z,3.80
2019-02-02T18:52:30.093Z,3.40
2019-02-02T18:55:19.380Z,4.60
2019-02-02T18:58:05.459Z,8.63
2019-02-02T19:00:51.233Z,14.85
2019-02-02T19:03:37.508Z,21.35
2019-02-02T19:06:23.303Z,24.12
2019-02-02T19:09:09.498Z,29.52
2019-02-02T19:11:56.119Z,59.58
2019-02-02T19:14:42.642Z,86.30
2019-02-02T19:17:28.656Z,93.07
2019-02-02T19:20:16.939Z,99.70
2019-02-02T19:23:03.012Z,96.78
2019-02-02T19:25:50.515Z,94.90
2019-02-02T19:28:39.973Z,90.50
2019-02-02T19:31:24.511Z,86.78
2019-02-02T19:34:10.355Z,88.07
2019-02-02T19:36:56.831Z,81.57
2019-02-02T19:39:45.164Z,76.45
2019-02-02T19:42:31.396Z,75.75
2019-02-02T19:45:19.635Z,70.28
2019-02-02T19:48:05.231Z,68.05
2019-02-02T19:50:51.202Z,66.33
2019-02-02T19:53:37.552Z,62.35
2019-02-02T19:56:23.415Z,61.65
2019-02-02T19:59:09.797Z,57.23
2019-02-02T20:01:55.603Z,56.85
2019-02-02T20:04:41.887Z,52.67
2019-02-02T20:07:27.927Z,52.85
2019-02-02T20:10:15.255Z,52.25
2019-02-02T20:13:01.051Z,49.93
2019-02-02T20:15:46.956Z,48.13
2019-02-02T20:18:32.783Z,46.55
2019-02-02T20:21:19.067Z,43.08
2019-02-02T20:24:05.291Z,41.58
2019-02-02T20:26:51.057Z,43.02
2019-02-02T20:29:36.928Z,40.28
2019-02-02T20:32:22.894Z,39.13
2019-02-02T20:35:09.556Z,38.45
2019-02-02T20:37:55.619Z,37.85
2019-02-02T20:40:41.336Z,37.10
2019-02-02T20:43:27.323Z,34.98
2019-02-02T20:46:13.607Z,34.75
2019-02-02T20:49:00.129Z,35.15
2019-02-02T20:51:46.111Z,32.08
2019-02-02T20:54:32.520Z,32.23
2019-02-02T20:57:18.616Z,32.85
2019-02-02T21:00:08.304Z,33.92
2019-02-02T21:02:54.176Z,34.85
2019-02-02T21:05:51.610Z,33.70
2019-02-02T21:08:27.838Z,32.28
2019-02-02T21:11:13.815Z,31.82
2019-02-02T21:14:00.291Z,30.65
2019-02-02T21:16:46.279Z,30.27
2019-02-02T21:19:32.467Z,29.40
2019-02-02T21:22:18.523Z,27.90
2019-02-02T21:25:05.311Z,28.10
2019-02-02T21:27:51.406Z,28.52
2019-02-02T21:30:37.170Z,26.85
2019-02-02T21:33:23.647Z,25.10
2019-02-02T21:36:09.375Z,25.08
2019-02-02T21:38:55.375Z,24.98
2019-02-02T21:41:41.599Z,24.72
2019-02-02T21:44:27.343Z,25.65
2019-02-02T21:47:14.107Z,22.50
2019-02-02T21:50:00.267Z,24.75
2019-02-02T21:52:46.254Z,23.52
2019-02-02T21:55:32.323Z,22.48
2019-02-02T21:58:18.791Z,22.45
2019-02-02T22:01:05.159Z,22.05
2019-02-02T22:03:51.475Z,21.25
2019-02-02T22:06:37.251Z,22.62
2019-02-02T22:09:22.943Z,20.95
2019-02-02T22:12:09.439Z,21.73
2019-02-02T22:14:55.261Z,21.52
2019-02-02T22:17:41.583Z,21.85
2019-02-02T22:20:27.719Z,20.25
2019-02-02T22:23:13.591Z,22.42
2019-02-02T22:25:59.432Z,22.77
2019-02-02T22:28:45.671Z,22.62
2019-02-02T22:31:31.651Z,21.40
2019-02-02T22:34:17.667Z,20.80
2019-02-02T22:37:03.975Z,21.02
2019-02-02T22:39:49.833Z,21.50
2019-02-02T22:42:35.863Z,22.15
2019-02-02T22:45:21.760Z,20.68
2019-02-02T22:48:07.560Z,22.15
2019-02-02T22:50:53.471Z,21.10
2019-02-02T22:53:39.275Z,20.50
2019-02-02T22:56:25.535Z,19.70
2019-02-02T22:59:11.752Z,20.15
2019-02-02T23:02:02.900Z,20.20
2019-02-02T23:05:26.766Z,18.92
2019-02-02T23:08:47.551Z,20.27
2019-02-02T23:12:09.179Z,18.73
2019-02-02T23:15:35.557Z,18.02
2019-02-02T23:18:22.123Z,16.97
2019-02-02T23:21:08.377Z,29.40
2019-02-02T23:23:54.471Z,29.23
2019-02-02T23:26:40.353Z,28.47
2019-02-02T23:29:26.648Z,26.57
2019-02-02T23:32:12.615Z,22.98
2019-02-02T23:34:58.867Z,21.75
2019-02-02T23:37:44.883Z,21.45
2019-02-02T23:40:30.651Z,20.25
2019-02-02T23:43:17.082Z,19.75
2019-02-02T23:46:02.933Z,19.70
2019-02-02T23:49:02.275Z,19.05
2019-02-02T23:51:48.227Z,18.52
2019-02-02T23:54:34.116Z,18.00
2019-02-02T23:57:20.007Z,18.37
